Time;durP1;ratioP1;P1;durP2;ratioP2;P2;SDS_P1;SDS_P2;PMS_P1;PMS_P2;Temp;Humidity;BMP_temperature;BMP_pressure;BME280_temperature;BME280_humidity;BME280_pressure;Samples;Min_cycle;Max_cycle;Signal;HPM_P1;HPM_P2
2022/03/29 00:02:21;;;;;;;21.20;13.30;;;12.00;99.90;;;;;;5052934;28;20033;-78
2022/03/29 00:04:49;;;;;;;25.20;13.13;;;12.20;99.90;;;;;;5052363;28;20049;-79
2022/03/29 00:07:16;;;;;;;19.83;12.18;;;12.20;99.90;;;;;;5052359;28;20396;-81
2022/03/29 00:09:43;;;;;;;18.88;12.30;;;12.00;99.90;;;;;;5053070;28;20056;-81
2022/03/29 00:12:10;;;;;;;18.30;12.25;;;12.00;99.90;;;;;;5052582;28;20033;-78
2022/03/29 00:14:38;;;;;;;19.27;12.43;;;12.00;99.90;;;;;;5052211;28;20045;-79
2022/03/29 00:20:57;;;;;;;20.00;13.23;;;11.90;99.90;;;;;;5052113;28;20102;-76
2022/03/29 00:23:24;;;;;;;22.80;12.95;;;11.60;99.90;;;;;;5052469;28;20415;-75
2022/03/29 00:25:52;;;;;;;19.77;13.55;;;11.50;99.90;;;;;;5052259;28;20389;-75
2022/03/29 00:28:19;;;;;;;22.60;12.95;;;11.50;99.90;;;;;;5052268;28;20497;-77
2022/03/29 00:30:46;;;;;;;19.77;13.23;;;11.70;99.90;;;;;;5052302;28;20051;-75
2022/03/29 00:33:13;;;;;;;21.83;12.95;;;11.60;99.90;;;;;;5052132;28;20047;-73
2022/03/29 00:35:41;;;;;;;22.80;13.40;;;11.40;99.90;;;;;;5033042;28;20068;-76
2022/03/29 00:38:08;;;;;;;16.90;11.70;;;11.50;99.90;;;;;;5032485;28;20049;-75
2022/03/29 00:40:35;;;;;;;17.10;11.35;;;11.50;99.90;;;;;;5032154;28;20046;-75
2022/03/29 00:43:05;;;;;;;17.20;11.70;;;11.50;99.90;;;;;;5032068;28;20721;-78
2022/03/29 00:45:32;;;;;;;19.58;11.68;;;11.30;99.90;;;;;;5031951;28;20037;-79
2022/03/29 00:48:00;;;;;;;25.05;11.45;;;11.20;99.90;;;;;;5031984;28;20394;-79
2022/03/29 00:50:27;;;;;;;16.30;11.82;;;11.20;99.90;;;;;;5032143;28;20069;-81
2022/03/29 00:52:55;;;;;;;15.68;10.55;;;11.00;99.90;;;;;;5032308;28;20041;-77
2022/03/29 00:55:23;;;;;;;17.88;11.90;;;10.90;99.90;;;;;;5031685;28;20052;-78
2022/03/29 00:57:50;;;;;;;16.67;11.57;;;11.20;99.90;;;;;;5031789;28;20508;-74
2022/03/29 01:00:18;;;;;;;17.38;11.45;;;11.30;99.90;;;;;;5031990;28;20057;-75
2022/03/29 01:02:45;;;;;;;15.93;10.80;;;11.30;99.90;;;;;;5032347;28;20045;-80
2022/03/29 01:05:13;;;;;;;15.25;10.93;;;11.20;99.90;;;;;;5030957;28;20040;-78
2022/03/29 01:07:40;;;;;;;17.73;11.13;;;11.00;99.90;;;;;;5031626;28;20049;-80
2022/03/29 01:10:08;;;;;;;20.00;11.40;;;11.00;99.90;;;;;;5031212;28;20045;-79
2022/03/29 01:12:37;;;;;;;16.30;10.95;;;11.00;99.90;;;;;;5031089;28;20036;-78
2022/03/29 01:15:10;;;;;;;18.27;11.48;;;10.90;99.90;;;;;;5031727;28;20076;-78
2022/03/29 01:17:41;;;;;;;17.85;10.02;;;10.80;99.90;;;;;;5031888;28;20048;-78
2022/03/29 01:20:16;;;;;;;17.17;9.63;;;10.90;99.90;;;;;;5030897;28;20137;-75
2022/03/29 01:22:48;;;;;;;14.70;10.13;;;11.00;99.90;;;;;;5031615;28;20492;-77
2022/03/29 01:25:36;;;;;;;14.70;8.75;;;11.10;99.90;;;;;;5031430;28;20042;-77
2022/03/29 01:28:05;;;;;;;14.18;8.60;;;11.10;99.90;;;;;;5031694;28;20696;-82
2022/03/29 01:30:33;;;;;;;13.63;9.23;;;11.00;99.90;;;;;;5031193;28;20049;-79
2022/03/29 01:33:04;;;;;;;18.40;9.48;;;11.00;99.90;;;;;;5031800;28;20068;-77
2022/03/29 01:35:32;;;;;;;17.33;10.32;;;10.90;99.90;;;;;;5031387;28;20148;-80
2022/03/29 01:37:59;;;;;;;12.90;9.80;;;11.00;99.90;;;;;;5030840;28;20353;-74
2022/03/29 01:40:27;;;;;;;14.82;10.15;;;11.00;99.90;;;;;;5031117;28;20038;-77
2022/03/29 01:42:57;;;;;;;18.83;11.02;;;10.80;99.90;;;;;;5031463;28;20060;-78
2022/03/29 01:45:31;;;;;;;18.60;11.60;;;10.70;99.90;;;;;;5031307;28;20558;-78
2022/03/29 01:47:59;;;;;;;14.57;10.27;;;10.40;99.90;;;;;;5031435;28;20065;-79
2022/03/29 01:50:27;;;;;;;22.55;11.60;;;10.40;99.90;;;;;;5031192;28;20038;-78
2022/03/29 01:52:55;;;;;;;18.10;11.52;;;10.50;99.90;;;;;;5031091;28;20118;-73
2022/03/29 01:55:23;;;;;;;20.45;11.35;;;10.50;99.90;;;;;;5031449;28;20044;-74
2022/03/29 01:57:53;;;;;;;19.90;10.93;;;10.40;99.90;;;;;;5030883;28;20042;-75
2022/03/29 02:00:34;;;;;;;17.77;11.55;;;10.20;99.90;;;;;;5031170;28;20069;-77
2022/03/29 02:03:05;;;;;;;17.77;11.48;;;10.30;99.90;;;;;;5031498;28;20041;-75
2022/03/29 02:05:33;;;;;;;18.35;11.43;;;10.50;99.90;;;;;;5031544;28;20430;-76
2022/03/29 02:08:01;;;;;;;14.93;10.68;;;10.30;99.90;;;;;;5030904;28;20041;-77
2022/03/29 02:10:29;;;;;;;17.17;11.70;;;10.30;99.90;;;;;;5031066;28;20037;-75
2022/03/29 02:12:57;;;;;;;20.63;11.40;;;10.20;99.90;;;;;;5030916;28;20042;-79
2022/03/29 02:15:24;;;;;;;15.32;10.85;;;10.10;99.90;;;;;;5031218;28;20416;-77
2022/03/29 02:17:52;;;;;;;19.25;10.98;;;10.20;99.90;;;;;;5030996;28;20128;-79
2022/03/29 02:20:21;;;;;;;19.52;10.70;;;10.20;99.90;;;;;;5031118;28;20045;-78
2022/03/29 02:22:49;;;;;;;14.48;10.25;;;10.30;99.90;;;;;;5016096;28;20497;-76
2022/03/29 02:25:16;;;;;;;17.85;10.88;;;10.20;99.90;;;;;;5034806;28;20049;-77
2022/03/29 02:27:45;;;;;;;14.57;10.15;;;10.30;99.90;;;;;;5034619;28;20056;-78
2022/03/29 02:30:15;;;;;;;16.27;10.10;;;10.30;99.90;;;;;;5034784;28;20041;-76
2022/03/29 02:32:43;;;;;;;14.73;9.85;;;10.20;99.90;;;;;;5034379;28;20042;-79
2022/03/29 02:35:10;;;;;;;14.18;9.55;;;10.20;99.90;;;;;;5034900;28;20096;-76
2022/03/29 02:37:38;;;;;;;16.58;10.43;;;10.30;99.90;;;;;;5034496;28;20045;-75
2022/03/29 02:40:07;;;;;;;19.63;10.68;;;10.30;99.90;;;;;;5034400;28;20824;-75
2022/03/29 02:42:45;;;;;;;16.10;9.85;;;10.20;99.90;;;;;;5034035;28;20067;-76
2022/03/29 02:45:17;;;;;;;17.38;9.52;;;10.20;99.90;;;;;;5034294;28;20041;-75
2022/03/29 02:47:46;;;;;;;15.02;9.70;;;10.00;99.90;;;;;;5016639;28;20052;-78
2022/03/29 02:50:15;;;;;;;13.32;9.88;;;10.00;99.90;;;;;;5016773;28;20050;-81
2022/03/29 02:52:44;;;;;;;14.02;10.07;;;10.30;99.90;;;;;;5033797;28;20049;-76
2022/03/29 02:55:12;;;;;;;16.52;10.10;;;10.30;99.90;;;;;;5034575;28;20045;-79
2022/03/29 02:57:39;;;;;;;13.50;9.60;;;10.40;99.90;;;;;;5034097;28;20041;-78
2022/03/29 03:00:07;;;;;;;17.45;10.07;;;10.20;99.90;;;;;;5016379;28;20049;-76
2022/03/29 03:02:34;;;;;;;21.50;11.13;;;10.30;99.90;;;;;;5034430;28;20048;-77
2022/03/29 03:05:02;;;;;;;16.15;10.55;;;10.00;99.90;;;;;;5033995;28;20080;-76
2022/03/29 03:07:29;;;;;;;14.10;10.38;;;9.70;99.90;;;;;;5033746;28;20046;-77
2022/03/29 03:09:57;;;;;;;13.25;10.07;;;9.60;99.90;;;;;;5033565;28;20095;-76
2022/03/29 03:12:24;;;;;;;18.27;11.07;;;9.60;99.90;;;;;;5016029;28;20049;-75
2022/03/29 03:14:51;;;;;;;13.15;9.70;;;9.70;99.90;;;;;;5033719;28;20434;-74
2022/03/29 03:17:18;;;;;;;18.75;10.57;;;10.00;99.90;;;;;;5033845;28;20054;-78
2022/03/29 03:19:46;;;;;;;17.10;10.90;;;10.20;99.90;;;;;;5033354;28;20405;-74
2022/03/29 03:22:13;;;;;;;17.65;11.07;;;10.10;99.90;;;;;;5033567;28;20049;-78
2022/03/29 03:24:40;;;;;;;21.73;12.10;;;10.00;99.90;;;;;;5033568;28;20037;-78
2022/03/29 03:27:08;;;;;;;24.40;14.40;;;10.10;99.90;;;;;;5015906;28;20046;-78
2022/03/29 03:29:35;;;;;;;24.00;13.93;;;9.40;99.90;;;;;;4999898;28;20053;-75
2022/03/29 03:32:03;;;;;;;30.17;13.85;;;9.40;99.90;;;;;;5033671;28;20477;-77
2022/03/29 03:34:30;;;;;;;24.65;14.02;;;9.40;99.90;;;;;;5036508;28;20067;-80
2022/03/29 03:36:58;;;;;;;23.85;13.35;;;9.20;99.90;;;;;;5053359;28;20044;-78
2022/03/29 03:39:25;;;;;;;21.65;13.18;;;9.10;99.90;;;;;;5053577;28;20125;-77
2022/03/29 03:41:53;;;;;;;24.20;13.80;;;9.30;99.90;;;;;;5035438;28;20041;-77
2022/03/29 03:44:20;;;;;;;19.92;12.38;;;9.70;99.90;;;;;;5053247;28;20400;-77
2022/03/29 03:46:47;;;;;;;19.02;12.32;;;9.80;99.90;;;;;;5053257;28;20388;-77
2022/03/29 03:49:14;;;;;;;19.90;13.05;;;9.80;99.90;;;;;;5052958;28;20484;-75
2022/03/29 03:51:42;;;;;;;27.50;13.40;;;9.90;99.90;;;;;;5053499;28;20041;-75
2022/03/29 03:54:09;;;;;;;24.02;12.45;;;10.10;99.90;;;;;;5053666;28;20040;-75
2022/03/29 03:56:36;;;;;;;20.75;13.23;;;9.90;99.90;;;;;;5053396;28;20412;-79
2022/03/29 03:59:04;;;;;;;26.88;13.90;;;10.10;99.90;;;;;;5052912;28;20049;-74
2022/03/29 04:01:33;;;;;;;28.70;13.77;;;10.10;99.90;;;;;;5053478;28;20148;-79
2022/03/29 04:04:01;;;;;;;20.83;13.10;;;10.10;99.90;;;;;;5053079;28;20389;-78
2022/03/29 04:06:28;;;;;;;21.83;12.43;;;10.10;99.90;;;;;;5052656;28;20416;-79
2022/03/29 04:08:55;;;;;;;25.83;14.13;;;10.10;99.90;;;;;;5052819;28;20538;-78
2022/03/29 04:11:23;;;;;;;22.05;13.18;;;9.90;99.90;;;;;;5052142;28;20508;-80
2022/03/29 04:13:50;;;;;;;20.13;13.20;;;9.90;99.90;;;;;;5052509;28;20041;-77
2022/03/29 04:16:17;;;;;;;23.08;11.50;;;9.70;99.90;;;;;;5052110;28;20067;-78
2022/03/29 04:18:45;;;;;;;20.67;13.15;;;9.60;99.90;;;;;;5052543;28;20110;-78
2022/03/29 04:21:12;;;;;;;23.30;12.98;;;9.20;99.90;;;;;;5052450;28;20080;-75
2022/03/29 04:23:39;;;;;;;23.17;13.65;;;9.30;99.90;;;;;;5052803;28;20040;-79
2022/03/29 04:26:06;;;;;;;25.00;13.73;;;9.50;99.90;;;;;;5052446;28;20053;-78
2022/03/29 04:28:34;;;;;;;33.63;13.73;;;9.30;99.90;;;;;;5051806;28;20378;-76
2022/03/29 04:31:01;;;;;;;25.63;13.18;;;9.40;99.90;;;;;;5052057;28;20060;-76
2022/03/29 04:33:29;;;;;;;23.83;13.32;;;9.40;99.90;;;;;;5034595;28;20103;-78
2022/03/29 04:35:56;;;;;;;24.33;13.73;;;9.40;99.90;;;;;;5039227;28;20409;-75
2022/03/29 04:38:25;;;;;;;23.33;12.38;;;9.60;99.90;;;;;;5032129;28;20037;-76
2022/03/29 04:40:52;;;;;;;22.23;12.32;;;9.50;99.90;;;;;;5032480;28;20050;-79
2022/03/29 04:43:20;;;;;;;18.95;12.32;;;9.40;99.90;;;;;;5032078;28;20044;-78
2022/03/29 04:45:48;;;;;;;21.73;13.57;;;9.40;99.90;;;;;;5030593;28;20124;-79
2022/03/29 04:48:15;;;;;;;24.45;14.10;;;9.60;99.90;;;;;;5030927;28;20126;-81
2022/03/29 04:50:42;;;;;;;29.73;14.18;;;9.50;99.90;;;;;;5034652;28;20045;-74
2022/03/29 04:53:10;;;;;;;26.17;13.95;;;9.40;99.90;;;;;;5038641;28;20484;-72
2022/03/29 04:55:38;;;;;;;26.83;14.55;;;9.00;99.90;;;;;;5013880;28;20400;-77
2022/03/29 04:58:05;;;;;;;26.45;15.00;;;9.00;99.90;;;;;;5031475;28;20405;-78
2022/03/29 05:00:32;;;;;;;25.85;14.27;;;9.00;99.90;;;;;;5031679;28;20041;-75
2022/03/29 05:03:00;;;;;;;27.42;16.05;;;9.10;99.90;;;;;;5031838;28;20056;-76
2022/03/29 05:05:27;;;;;;;23.30;15.15;;;9.10;99.90;;;;;;5031520;28;20037;-74
2022/03/29 05:07:55;;;;;;;17.77;13.10;;;9.10;99.90;;;;;;5031154;28;20152;-76
2022/03/29 05:10:23;;;;;;;25.45;14.48;;;8.90;99.90;;;;;;5021699;28;20038;-78
2022/03/29 05:12:55;;;;;;;26.33;14.63;;;9.10;99.90;;;;;;5019963;28;20045;-79
2022/03/29 05:15:23;;;;;;;23.15;12.93;;;9.30;99.90;;;;;;5020208;28;20038;-78
2022/03/29 05:17:50;;;;;;;22.40;13.38;;;9.30;99.90;;;;;;5022315;28;20042;-80
2022/03/29 05:20:18;;;;;;;21.55;12.93;;;9.40;99.90;;;;;;5001820;28;20049;-76
2022/03/29 05:22:46;;;;;;;21.38;13.10;;;9.40;99.90;;;;;;5020033;28;20041;-76
2022/03/29 05:25:15;;;;;;;24.05;12.77;;;9.50;99.90;;;;;;5020925;28;20038;-82
2022/03/29 05:27:43;;;;;;;21.77;13.05;;;9.60;99.90;;;;;;5020469;28;20099;-76
2022/03/29 05:30:12;;;;;;;18.50;12.13;;;9.80;99.90;;;;;;5021055;28;20044;-80
2022/03/29 05:32:41;;;;;;;20.58;12.27;;;9.80;99.90;;;;;;5019609;28;20374;-78
2022/03/29 05:35:09;;;;;;;21.63;12.20;;;9.90;99.90;;;;;;5019953;28;20404;-79
2022/03/29 05:37:38;;;;;;;20.10;12.48;;;9.90;99.90;;;;;;5021103;28;20034;-77
2022/03/29 05:40:08;;;;;;;26.73;13.43;;;9.90;99.90;;;;;;5019861;28;20053;-78
2022/03/29 05:42:43;;;;;;;19.38;12.25;;;9.70;99.90;;;;;;5001588;28;20042;-76
2022/03/29 05:45:12;;;;;;;20.10;12.52;;;9.70;99.90;;;;;;5019321;28;20047;-75
2022/03/29 05:50:27;;;;;;;17.48;12.15;;;9.80;99.90;;;;;;5018305;28;20045;-75
2022/03/29 05:52:56;;;;;;;22.65;12.90;;;9.90;99.90;;;;;;5030148;28;20145;-78
2022/03/29 05:55:24;;;;;;;19.33;11.82;;;10.00;99.90;;;;;;5028698;28;20030;-76
2022/03/29 05:57:55;;;;;;;19.45;11.77;;;10.10;99.90;;;;;;5003937;28;20138;-89
2022/03/29 06:00:31;;;;;;;24.40;13.20;;;10.40;99.90;;;;;;5008181;28;20037;-81
2022/03/29 06:02:59;;;;;;;20.08;12.45;;;10.50;99.90;;;;;;5023776;28;20161;-83
2022/03/29 06:05:26;;;;;;;21.67;12.55;;;10.60;99.90;;;;;;5005758;28;20042;-78
2022/03/29 06:07:53;;;;;;;23.38;13.45;;;10.80;99.90;;;;;;5034561;28;20041;-80
2022/03/29 06:10:23;;;;;;;82.47;48.92;;;11.30;99.90;;;;;;5034475;28;20490;-78
2022/03/29 06:12:54;;;;;;;34.15;20.35;;;11.30;99.90;;;;;;5017482;28;20038;-77
2022/03/29 06:15:21;;;;;;;32.28;18.88;;;11.70;99.90;;;;;;5031338;28;20425;-75
2022/03/29 06:17:48;;;;;;;52.47;34.38;;;12.00;99.90;;;;;;5034970;28;20116;-75
2022/03/29 06:20:15;;;;;;;57.47;33.38;;;12.00;99.90;;;;;;5034168;28;20065;-77
2022/03/29 06:22:44;;;;;;;81.53;45.97;;;12.10;99.90;;;;;;5034185;28;20046;-78
2022/03/29 06:25:13;;;;;;;37.45;20.88;;;12.30;99.90;;;;;;5034258;28;20048;-76
2022/03/29 06:27:41;;;;;;;31.83;18.92;;;12.30;99.90;;;;;;5018113;28;20038;-78
2022/03/29 06:30:09;;;;;;;26.83;15.05;;;12.40;99.90;;;;;;5034529;28;20068;-81
2022/03/29 06:32:51;;;;;;;30.08;14.85;;;12.30;99.90;;;;;;5034933;28;20525;-82
2022/03/29 06:35:23;;;;;;;21.27;13.75;;;11.90;99.90;;;;;;5016458;28;20485;-79
2022/03/29 06:37:52;;;;;;;21.63;13.13;;;11.30;99.90;;;;;;5033787;28;20115;-80
2022/03/29 06:40:21;;;;;;;19.45;12.52;;;11.30;99.90;;;;;;5034287;28;20464;-83
2022/03/29 06:42:50;;;;;;;18.00;12.25;;;11.30;99.90;;;;;;5034026;28;20076;-83
2022/03/29 06:45:18;;;;;;;23.00;13.10;;;11.50;99.90;;;;;;5034120;28;20041;-79
2022/03/29 06:47:45;;;;;;;21.95;12.13;;;11.60;99.90;;;;;;5016840;28;20489;-80
2022/03/29 06:50:12;;;;;;;23.27;11.95;;;11.50;99.90;;;;;;5033934;28;20041;-81
2022/03/29 06:52:42;;;;;;;20.60;12.43;;;11.60;99.90;;;;;;5034392;28;20041;-84
2022/03/29 06:55:11;;;;;;;17.23;12.67;;;11.50;99.90;;;;;;5034595;28;20041;-85
2022/03/29 06:57:39;;;;;;;22.05;11.80;;;11.80;99.90;;;;;;5033602;28;20072;-78
2022/03/29 07:00:12;;;;;;;18.80;12.45;;;11.90;99.90;;;;;;5033845;28;20434;-81
2022/03/29 07:02:39;;;;;;;17.38;10.88;;;12.00;99.90;;;;;;5034646;28;20138;-83
2022/03/29 07:05:07;;;;;;;20.08;11.27;;;11.80;99.90;;;;;;5034728;28;20053;-81
2022/03/29 07:07:35;;;;;;;22.50;11.75;;;11.70;99.90;;;;;;5030532;28;20036;-81
2022/03/29 07:12:52;;;;;;;17.70;11.55;;;11.70;99.90;;;;;;5037215;28;20051;-86
2022/03/29 07:15:20;;;;;;;20.83;13.02;;;11.90;99.90;;;;;;4981537;28;20042;-85
2022/03/29 07:17:47;;;;;;;17.65;12.48;;;11.40;99.90;;;;;;5010749;28;20076;-76
2022/03/29 07:20:16;;;;;;;16.33;11.68;;;11.40;99.90;;;;;;5015892;28;20077;-85
2022/03/29 07:22:47;;;;;;;17.70;11.47;;;11.70;99.90;;;;;;5005507;28;20056;-86
2022/03/29 07:25:18;;;;;;;20.80;11.68;;;11.90;99.90;;;;;;5012888;28;20650;-85
2022/03/29 07:27:47;;;;;;;22.70;12.50;;;12.20;99.90;;;;;;5027458;28;20433;-81
2022/03/29 07:30:15;;;;;;;18.13;11.75;;;12.30;99.90;;;;;;5024723;28;20054;-82
2022/03/29 07:32:51;;;;;;;20.73;12.02;;;12.30;99.90;;;;;;5026141;28;20076;-87
2022/03/29 07:35:20;;;;;;;20.50;12.85;;;12.30;99.90;;;;;;5020599;28;20041;-88
2022/03/29 07:37:48;;;;;;;22.33;12.10;;;12.50;99.90;;;;;;5020640;28;20038;-83
2022/03/29 07:40:18;;;;;;;20.92;11.75;;;12.40;99.90;;;;;;5006904;28;20060;-86
2022/03/29 07:42:46;;;;;;;22.20;11.43;;;12.50;99.90;;;;;;4987110;28;20052;-80
2022/03/29 07:45:14;;;;;;;19.40;11.82;;;12.50;99.90;;;;;;5022118;28;20053;-78
2022/03/29 07:47:43;;;;;;;22.63;13.68;;;12.70;99.90;;;;;;5023691;28;20026;-77
2022/03/29 07:50:33;;;;;;;19.80;11.38;;;12.70;99.90;;;;;;5021256;28;20046;-77
2022/03/29 07:53:03;;;;;;;;;;;12.60;99.90;;;;;;5025169;28;20069;-78
2022/03/29 07:55:32;;;;;;;35.22;25.80;;;13.10;99.90;;;;;;5021040;28;20281;-75
2022/03/29 07:58:09;;;;;;;22.30;15.05;;;13.20;99.90;;;;;;5025549;28;20040;-79
2022/03/29 08:00:39;;;;;;;20.33;12.82;;;13.40;99.90;;;;;;5015869;28;20045;-82
2022/03/29 08:03:13;;;;;;;21.13;12.48;;;13.20;99.90;;;;;;5003290;28;20045;-81
2022/03/29 08:05:44;;;;;;;19.67;11.43;;;13.00;99.90;;;;;;5024913;28;20096;-85
2022/03/29 08:08:15;;;;;;;;;;;13.10;99.90;;;;;;5013497;28;20121;-78
2022/03/29 08:10:44;;;;;;;15.45;10.68;;;13.10;99.90;;;;;;5023751;28;19936;-81
2022/03/29 08:13:14;;;;;;;21.30;12.15;;;12.80;99.90;;;;;;5016940;28;20045;-78
2022/03/29 08:15:44;;;;;;;19.92;10.63;;;12.80;99.90;;;;;;5019949;28;20040;-81
2022/03/29 08:18:16;;;;;;;16.63;10.80;;;13.00;99.90;;;;;;5027176;28;20049;-84
2022/03/29 08:20:44;;;;;;;18.15;11.45;;;13.20;99.90;;;;;;5006162;28;20772;-84
2022/03/29 08:23:12;;;;;;;21.73;12.15;;;13.30;99.90;;;;;;5022581;28;20049;-75
2022/03/29 08:25:43;;;;;;;22.70;12.05;;;13.50;99.90;;;;;;5021526;28;20049;-79
2022/03/29 08:28:11;;;;;;;18.42;11.85;;;13.40;99.90;;;;;;5032154;28;20048;-79
2022/03/29 08:30:40;;;;;;;16.10;11.45;;;13.30;99.90;;;;;;5029075;28;20040;-81
2022/03/29 08:33:08;;;;;;;14.20;10.55;;;13.20;99.90;;;;;;5019455;28;20045;-79
2022/03/29 08:35:39;;;;;;;16.42;10.73;;;13.40;99.90;;;;;;5019649;28;20041;-83
2022/03/29 08:38:07;;;;;;;16.67;9.68;;;13.80;99.90;;;;;;5002604;28;20056;-82
2022/03/29 08:40:56;;;;;;;16.30;10.40;;;13.60;99.90;;;;;;5020314;28;20513;-83
2022/03/29 08:43:27;;;;;;;14.93;10.00;;;13.70;99.90;;;;;;5023999;28;20106;-83
2022/03/29 08:45:56;;;;;;;13.00;9.43;;;13.90;99.90;;;;;;5019926;28;20125;-80
2022/03/29 08:48:29;;;;;;;18.35;10.90;;;14.10;99.90;;;;;;5021460;28;20060;-82
2022/03/29 08:50:59;;;;;;;20.80;11.20;;;14.10;99.90;;;;;;5030942;28;20049;-72
2022/03/29 08:53:48;;;;;;;19.42;10.55;;;14.50;99.90;;;;;;5031598;28;20045;-76
2022/03/29 08:56:17;;;;;;;13.23;10.40;;;14.80;99.90;;;;;;5031653;28;20456;-79
2022/03/29 08:58:44;;;;;;;15.23;10.10;;;14.80;99.90;;;;;;5031152;28;20067;-78
2022/03/29 09:01:12;;;;;;;20.15;11.52;;;14.80;99.90;;;;;;5031573;28;20092;-79
2022/03/29 09:03:39;;;;;;;16.23;10.43;;;14.90;99.90;;;;;;5027495;28;20089;-78
2022/03/29 09:06:09;;;;;;;17.05;9.65;;;15.00;98.90;;;;;;5018569;28;20042;-80
2022/03/29 09:08:45;;;;;;;15.85;10.02;;;15.00;98.10;;;;;;5011655;28;20501;-75
2022/03/29 09:11:13;;;;;;;15.15;9.23;;;15.10;97.40;;;;;;5018169;28;20049;-76
2022/03/29 09:13:41;;;;;;;14.30;9.85;;;15.20;96.90;;;;;;5021007;28;20042;-77
2022/03/29 09:16:30;;;;;;;15.35;9.43;;;15.30;96.70;;;;;;5018819;28;20050;-78
2022/03/29 09:18:58;;;;;;;15.05;9.20;;;15.20;96.20;;;;;;5020876;28;20398;-82
2022/03/29 09:21:26;;;;;;;18.13;8.25;;;15.30;96.30;;;;;;5019292;28;20156;-73
2022/03/29 09:24:22;;;;;;;15.63;8.30;;;15.40;94.60;;;;;;5023399;28;20115;-79
2022/03/29 09:26:52;;;;;;;14.95;8.93;;;15.40;94.70;;;;;;4995830;28;20062;-80
2022/03/29 09:29:24;;;;;;;14.00;9.38;;;15.30;95.50;;;;;;5025541;28;20119;-79
2022/03/29 09:32:09;;;;;;;18.50;8.93;;;15.50;96.30;;;;;;5024562;28;20046;-79
2022/03/29 09:34:38;;;;;;;15.48;9.25;;;15.60;95.40;;;;;;5012386;28;20061;-75
2022/03/29 09:37:06;;;;;;;14.77;9.32;;;15.80;95.00;;;;;;5010814;28;20498;-77
2022/03/29 09:39:42;;;;;;;16.17;8.77;;;15.80;94.70;;;;;;5010560;28;20045;-78
2022/03/29 09:42:11;;;;;;;13.13;8.50;;;15.80;94.50;;;;;;5015692;28;20051;-81
2022/03/29 09:44:44;;;;;;;15.57;9.38;;;15.80;94.60;;;;;;5022197;28;20401;-81
2022/03/29 09:47:15;;;;;;;15.70;8.95;;;16.10;93.80;;;;;;5026616;28;20037;-81
2022/03/29 09:49:57;;;;;;;15.18;9.07;;;16.30;92.70;;;;;;5029990;28;20065;-78
2022/03/29 09:52:27;;;;;;;14.05;8.18;;;16.40;92.00;;;;;;5011760;28;20140;-82
2022/03/29 09:55:12;;;;;;;13.15;7.30;;;16.50;90.70;;;;;;5027201;28;20408;-85
2022/03/29 09:57:46;;;;;;;11.27;7.72;;;16.50;86.80;;;;;;5026109;28;20041;-76
2022/03/29 10:00:42;;;;;;;12.40;8.05;;;16.50;85.60;;;;;;5024426;28;20100;-78
2022/03/29 10:03:11;;;;;;;11.45;7.90;;;16.60;84.40;;;;;;5024343;28;20037;-79
2022/03/29 10:05:40;;;;;;;13.82;7.15;;;16.50;82.60;;;;;;5012712;28;20037;-80
2022/03/29 10:11:04;;;;;;;12.30;7.60;;;16.50;81.40;;;;;;5027899;28;20437;-78
2022/03/29 10:13:32;;;;;;;17.27;8.85;;;16.60;81.50;;;;;;5009545;28;20041;-77
2022/03/29 10:16:02;;;;;;;16.40;9.13;;;16.60;81.90;;;;;;5019108;28;20484;-81
2022/03/29 10:18:30;;;;;;;13.73;8.55;;;16.90;83.00;;;;;;5021269;28;20518;-79
2022/03/29 10:21:00;;;;;;;15.88;8.80;;;17.20;81.60;;;;;;5003743;28;20592;-80
2022/03/29 10:23:29;;;;;;;16.92;8.43;;;17.10;79.90;;;;;;5021197;28;20121;-80
2022/03/29 10:25:58;;;;;;;15.18;8.07;;;17.30;79.60;;;;;;5016862;28;20037;-78
2022/03/29 10:28:26;;;;;;;19.83;8.63;;;17.30;76.60;;;;;;5002231;28;20555;-78
2022/03/29 10:30:53;;;;;;;14.57;7.43;;;17.30;75.70;;;;;;5019544;28;20458;-80
2022/03/29 10:33:27;;;;;;;11.80;7.50;;;17.20;75.20;;;;;;5019503;28;20099;-80
2022/03/29 10:36:11;;;;;;;12.13;7.45;;;17.50;75.30;;;;;;5020842;28;21353;-78
2022/03/29 10:38:47;;;;;;;15.35;8.00;;;17.70;73.80;;;;;;5021194;28;20038;-81
2022/03/29 10:41:27;;;;;;;12.57;6.97;;;17.60;74.80;;;;;;5018105;28;20429;-81
2022/03/29 10:44:11;;;;;;;16.73;8.27;;;17.40;74.60;;;;;;5022637;28;20046;-84
2022/03/29 10:46:43;;;;;;;15.48;7.85;;;17.50;74.10;;;;;;5033273;28;20281;-78
2022/03/29 10:49:21;;;;;;;29.02;14.05;;;17.70;75.40;;;;;;5033906;28;20103;-81
2022/03/29 10:51:51;;;;;;;14.18;7.90;;;18.20;76.20;;;;;;5033882;28;20444;-77
2022/03/29 10:54:30;;;;;;;18.33;9.65;;;17.90;75.00;;;;;;5034040;28;20389;-76
2022/03/29 10:57:06;;;;;;;12.27;7.03;;;18.10;74.00;;;;;;5032479;28;20582;-82
2022/03/29 10:59:35;;;;;;;10.18;6.53;;;17.80;73.30;;;;;;5027442;28;20408;-81
2022/03/29 11:02:09;;;;;;;14.55;7.90;;;17.80;72.60;;;;;;5023251;28;20042;-80
2022/03/29 11:04:36;;;;;;;11.30;6.57;;;17.70;71.60;;;;;;5025191;28;20482;-86
2022/03/29 11:07:06;;;;;;;19.15;7.43;;;17.80;72.20;;;;;;5026299;28;20041;-80
2022/03/29 11:09:36;;;;;;;14.55;7.65;;;18.00;72.50;;;;;;5032596;28;20037;-77
2022/03/29 11:12:04;;;;;;;11.90;7.03;;;17.80;73.70;;;;;;5031899;28;20045;-79
2022/03/29 11:14:35;;;;;;;16.67;6.82;;;18.10;72.60;;;;;;5031561;28;20036;-80
2022/03/29 11:17:09;;;;;;;16.38;7.93;;;18.30;71.80;;;;;;5028265;28;20045;-80
2022/03/29 11:19:49;;;;;;;16.30;6.50;;;18.70;71.70;;;;;;5029905;28;20042;-82
2022/03/29 11:22:41;;;;;;;12.57;6.22;;;18.80;70.50;;;;;;5026020;28;20127;-82
2022/03/29 11:25:12;;;;;;;11.90;5.97;;;19.00;69.30;;;;;;5023093;28;20061;-77
2022/03/29 11:27:40;;;;;;;12.70;7.03;;;19.40;69.80;;;;;;5032112;28;20093;-80
2022/03/29 11:30:09;;;;;;;11.75;6.85;;;19.60;68.70;;;;;;5029107;28;20458;-79
2022/03/29 11:32:42;;;;;;;14.73;7.15;;;20.10;68.90;;;;;;5018481;28;20048;-79
2022/03/29 11:35:12;;;;;;;13.63;7.15;;;20.00;66.40;;;;;;5024296;28;20400;-81
2022/03/29 11:37:44;;;;;;;11.93;6.43;;;19.80;66.00;;;;;;5003837;28;20128;-82
2022/03/29 11:40:20;;;;;;;10.85;6.30;;;19.90;65.70;;;;;;5021094;28;20059;-83
2022/03/29 11:42:53;;;;;;;15.25;9.60;;;20.20;65.60;;;;;;5030822;28;20049;-80
2022/03/29 11:45:22;;;;;;;16.30;7.05;;;20.40;64.40;;;;;;5034577;28;20040;-81
2022/03/29 11:48:02;;;;;;;13.45;7.05;;;20.00;64.10;;;;;;5027121;28;20071;-81
2022/03/29 11:50:32;;;;;;;15.15;6.75;;;20.00;65.40;;;;;;5020196;28;20103;-83
2022/03/29 11:52:59;;;;;;;12.68;7.03;;;20.60;64.40;;;;;;5022095;28;20418;-77
2022/03/29 11:55:31;;;;;;;13.85;7.50;;;20.60;64.50;;;;;;5020060;28;20116;-82
2022/03/29 11:58:00;;;;;;;13.40;6.80;;;20.40;63.30;;;;;;5021729;28;20050;-80
2022/03/29 12:00:28;;;;;;;10.93;6.80;;;20.20;63.40;;;;;;5022841;28;20466;-82
2022/03/29 12:02:56;;;;;;;15.48;7.20;;;20.60;62.60;;;;;;5024077;28;20689;-79
2022/03/29 12:05:25;;;;;;;10.25;6.90;;;20.60;62.80;;;;;;5023496;28;20038;-80
2022/03/29 12:08:03;;;;;;;14.57;8.95;;;20.80;62.60;;;;;;5023301;28;20044;-82
2022/03/29 12:10:34;;;;;;;24.65;15.30;;;21.10;60.50;;;;;;5022718;28;20029;-81
2022/03/29 12:13:03;;;;;;;16.15;8.05;;;21.50;60.00;;;;;;5022275;28;20113;-82
2022/03/29 12:15:30;;;;;;;17.90;7.07;;;21.40;60.60;;;;;;5022656;28;20038;-81
2022/03/29 12:20:49;;;;;;;13.65;7.07;;;20.80;62.70;;;;;;5022427;28;20405;-80
2022/03/29 12:23:17;;;;;;;12.43;6.85;;;21.40;61.80;;;;;;5033076;28;20515;-82
2022/03/29 12:25:45;;;;;;;12.45;7.68;;;21.80;60.20;;;;;;5025469;28;20371;-81
2022/03/29 12:28:13;;;;;;;16.20;7.43;;;22.10;58.70;;;;;;5019472;28;20382;-77
2022/03/29 12:30:41;;;;;;;12.27;6.97;;;22.50;58.40;;;;;;5021324;28;20043;-78
2022/03/29 12:33:09;;;;;;;11.63;6.95;;;23.00;55.80;;;;;;5022152;28;20497;-80
2022/03/29 12:35:36;;;;;;;12.50;6.68;;;22.80;56.00;;;;;;5024586;28;20037;-79
2022/03/29 12:38:14;;;;;;;13.73;6.63;;;23.70;54.50;;;;;;5022581;28;20048;-79
2022/03/29 12:40:53;;;;;;;12.77;6.80;;;24.10;52.30;;;;;;5021805;28;20034;-77
2022/03/29 12:43:31;;;;;;;14.57;6.20;;;24.80;51.70;;;;;;5023410;28;20038;-79
2022/03/29 12:45:58;;;;;;;14.45;6.50;;;25.30;50.70;;;;;;5021640;28;20465;-76
2022/03/29 12:48:26;;;;;;;10.02;6.53;;;25.50;49.90;;;;;;5021515;28;20076;-78
2022/03/29 12:51:04;;;;;;;13.65;7.78;;;26.30;48.80;;;;;;5021687;28;20041;-80
2022/03/29 12:53:34;;;;;;;12.63;6.70;;;26.80;47.90;;;;;;5021729;28;20053;-79
2022/03/29 12:56:06;;;;;;;16.55;8.40;;;26.80;47.00;;;;;;5002862;28;20041;-80
2022/03/29 12:58:35;;;;;;;11.75;6.65;;;25.80;46.90;;;;;;5004370;28;20051;-82
2022/03/29 13:01:07;;;;;;;12.07;6.38;;;25.90;47.60;;;;;;5020763;28;20121;-85
2022/03/29 13:03:45;;;;;;;12.38;6.70;;;26.80;46.90;;;;;;5023717;28;20116;-80